Anhout Swan — OWMK2 — position and weather

sailwx.info

Track history (hours):
 
Tides and Currents Weather Stations Pressure Air Temp Water Temp Dewpoint Dewpoint Depression Visibility Wind Speed Wind Dir Waves Ship Positions

Anhout Swan

Last reported at 2017-Nov-16 23:58 UTC. Time now 2017-Nov-18 04:55 UTC.
Position N 43°24' E 004°55'.

Length 120 m; draft 5.2 m.

Type: Tanker. MMSI: 219473000.

Date/timePositionNaut miles runAvg speedWind from/ knotsBaromVisibWave heightAir tempDewpointWater temp
2017-Nov-16 23:58N 43°24' E 004°55'0 0.0
2017-Nov-16 22:22N 43°24' E 004°55'0 0.0
2017-Nov-16 21:55N 43°24' E 004°55'0 0.0
2017-Nov-16 17:49N 43°24' E 004°55'0 0.0
2017-Nov-16 17:25N 43°24' E 004°55'0 0.0
2017-Nov-16 16:13N 43°24' E 004°55'0 0.0
2017-Nov-16 15:55N 43°24' E 004°55'0 0.0
2017-Nov-16 15:25N 43°24' E 004°55'0 0.0
2017-Nov-16 14:55N 43°24' E 004°55'0 0.0
2017-Nov-16 13:13N 43°24' E 004°55'0 0.0
2017-Nov-16 11:55N 43°24' E 004°55'0 0.0
2017-Nov-16 08:23N 43°24' E 004°55'2 4.5
2017-Nov-16 08:01N 43°23' E 004°57'4 8.4
2017-Nov-16 07:29N 43°19' E 004°60'16910.2
2017-Nov-15 14:56N 43°17' E 008°52'512.6
2017-Nov-15 14:31N 43°17' E 008°60'812.8
2017-Nov-15 13:54N 43°17' E 009°10'512.6
2017-Nov-15 13:31N 43°17' E 009°17'612.7
2017-Nov-15 13:01N 43°17' E 009°26'713.1
2017-Nov-15 12:31N 43°17' E 009°35'714.0
2017-Nov-15 12:01N 43°17' E 009°44'714.2
2017-Nov-15 11:31N 43°17' E 009°54'612.3
2017-Nov-15 11:01N 43°19' E 010°02'714.3
2017-Nov-15 10:31N 43°25' E 010°07'714.3
2017-Nov-15 10:00N 43°31' E 010°13'4 8.6
2017-Nov-15 09:30N 43°33' E 010°18'2 3.9
2017-Nov-15 09:00N 43°35' E 010°19'0 0.0
2017-Nov-15 08:28N 43°35' E 010°19'0 0.0
2017-Nov-15 07:58N 43°35' E 010°19'0 0.0
2017-Nov-15 07:28N 43°35' E 010°19'0 0.0
2017-Nov-15 06:55N 43°35' E 010°19'0 0.0
2017-Nov-15 06:28N 43°35' E 010°19'0 0.0
2017-Nov-15 05:58N 43°35' E 010°19'0 0.0
2017-Nov-15 05:22N 43°35' E 010°19'0 0.0
2017-Nov-15 04:58N 43°35' E 010°19'0 0.0
2017-Nov-15 04:28N 43°35' E 010°19'0 0.0
2017-Nov-15 03:55N 43°35' E 010°19'0 0.0
2017-Nov-15 03:25N 43°35' E 010°19'0 0.0
2017-Nov-15 02:58N 43°35' E 010°19'0 0.0
2017-Nov-15 02:28N 43°35' E 010°19'0 0.0
2017-Nov-15 01:58N 43°35' E 010°19'0 0.0
2017-Nov-15 01:28N 43°35' E 010°19'0 0.0
2017-Nov-15 00:58N 43°35' E 010°19'0 0.0
2017-Nov-15 00:28N 43°35' E 010°19'0 0.0
2017-Nov-14 23:58N 43°35' E 010°19'0 0.0
2017-Nov-14 23:25N 43°35' E 010°19'0 0.0
2017-Nov-14 22:58N 43°35' E 010°19'0 0.0
2017-Nov-14 22:28N 43°35' E 010°19'0 0.0
2017-Nov-14 21:58N 43°35' E 010°19'0 0.0
2017-Nov-14 21:28N 43°35' E 010°19'0 0.0
2017-Nov-14 20:55N 43°35' E 010°19'0 0.0
2017-Nov-14 20:28N 43°35' E 010°19'0 0.0
2017-Nov-14 19:52N 43°35' E 010°19'0 0.0
2017-Nov-14 19:28N 43°35' E 010°19'0 0.0
2017-Nov-14 18:58N 43°35' E 010°19'0 0.0
2017-Nov-14 18:28N 43°35' E 010°19'0 0.0
2017-Nov-14 17:58N 43°35' E 010°19'0 0.0
2017-Nov-14 17:28N 43°35' E 010°19'0 0.0
2017-Nov-14 16:58N 43°35' E 010°19'0 0.0
2017-Nov-14 16:28N 43°35' E 010°19'0 0.0
2017-Nov-14 15:58N 43°35' E 010°19'0 0.0
2017-Nov-14 15:28N 43°35' E 010°19'0 0.0
2017-Nov-14 14:58N 43°35' E 010°19'0 0.0
2017-Nov-14 14:28N 43°35' E 010°19'0 0.0
2017-Nov-14 13:58N 43°35' E 010°19'0 0.0
2017-Nov-14 13:25N 43°35' E 010°19'0 0.0
2017-Nov-14 12:58N 43°35' E 010°19'0 0.0
2017-Nov-14 12:30N 43°35' E 010°19'0 0.1
2017-Nov-14 12:00N 43°35' E 010°19'2 3.1
2017-Nov-14 11:30N 43°34' E 010°18'3 5.8
2017-Nov-14 11:00N 43°31' E 010°16'3 5.8
2017-Nov-14 10:30N 43°29' E 010°13'3 6.1
2017-Nov-14 10:00N 43°27' E 010°10'3 6.3
2017-Nov-14 09:30N 43°24' E 010°08'611.0
2017-Nov-14 09:00N 43°20' E 010°04'611.3
2017-Nov-14 08:30N 43°17' E 009°57'612.7
2017-Nov-14 08:00N 43°17' E 009°48'612.9
2017-Nov-14 07:30N 43°17' E 009°39'713.3
2017-Nov-14 07:00N 43°17' E 009°30'713.6
2017-Nov-14 06:30N 43°17' E 009°21'612.9
2017-Nov-14 06:00N 43°17' E 009°12'611.6
2017-Nov-14 05:30N 43°15' E 009°04'510.9
2017-Nov-14 05:00N 43°13' E 008°57'  
2017-Nov-11 22:54N 37°41' W 000°25'614.7
2017-Nov-11 22:31N 37°36' W 000°29'1314.4
2017-Nov-11 21:35N 37°26' W 000°41'114.3
2017-Nov-11 21:31N 37°25' W 000°42'714.2
2017-Nov-11 21:00N 37°20' W 000°48'814.3
2017-Nov-11 20:27N 37°15' W 000°55'21613.8
2017-Nov-11 04:50N 36°00' W 005°07'515.3
2017-Nov-11 04:30N 35°59' W 005°14'713.5
2017-Nov-11 04:01N 35°54' W 005°20'0 0.1
2017-Nov-11 03:31N 35°54' W 005°20'0 0.1
2017-Nov-11 03:00N 35°54' W 005°20'0 0.2
2017-Nov-11 02:30N 35°54' W 005°20'0 0.1
2017-Nov-11 02:01N 35°54' W 005°20'0 0.1
2017-Nov-11 01:31N 35°54' W 005°20'0 0.0
2017-Nov-11 01:00N 35°54' W 005°20'0 0.1
2017-Nov-11 00:31N 35°54' W 005°20'0 0.0
2017-Nov-11 00:00N 35°54' W 005°20'1 2.4
2017-Nov-10 23:30N 35°56' W 005°20'713.2
2017-Nov-10 23:00N 36°02' W 005°22'713.8
2017-Nov-10 22:29N 36°09' W 005°24'  
Track history (hours):
 
Tides and Currents Weather Stations Pressure Air Temp Water Temp Dewpoint Dewpoint Depression Visibility Wind Speed Wind Dir Waves Ship Positions

Anhout Swan

Last reported at 2017-Nov-16 23:58 UTC. Time now 2017-Nov-18 04:55 UTC.
Position N 43°24' E 004°55'.

Length 120 m; draft 5.2 m.

Type: Tanker. MMSI: 219473000.

Date/timePositionNaut miles runAvg speedWind from/ knotsBaromVisibWave heightAir tempDewpointWater temp
2017-Nov-16 23:58N 43°24' E 004°55'0 0.0
2017-Nov-16 22:22N 43°24' E 004°55'0 0.0
2017-Nov-16 21:55N 43°24' E 004°55'0 0.0
2017-Nov-16 17:49N 43°24' E 004°55'0 0.0
2017-Nov-16 17:25N 43°24' E 004°55'0 0.0
2017-Nov-16 16:13N 43°24' E 004°55'0 0.0
2017-Nov-16 15:55N 43°24' E 004°55'0 0.0
2017-Nov-16 15:25N 43°24' E 004°55'0 0.0
2017-Nov-16 14:55N 43°24' E 004°55'0 0.0
2017-Nov-16 13:13N 43°24' E 004°55'0 0.0
2017-Nov-16 11:55N 43°24' E 004°55'0 0.0
2017-Nov-16 08:23N 43°24' E 004°55'2 4.5
2017-Nov-16 08:01N 43°23' E 004°57'4 8.4
2017-Nov-16 07:29N 43°19' E 004°60'16910.2
2017-Nov-15 14:56N 43°17' E 008°52'512.6
2017-Nov-15 14:31N 43°17' E 008°60'812.8
2017-Nov-15 13:54N 43°17' E 009°10'512.6
2017-Nov-15 13:31N 43°17' E 009°17'612.7
2017-Nov-15 13:01N 43°17' E 009°26'713.1
2017-Nov-15 12:31N 43°17' E 009°35'714.0
2017-Nov-15 12:01N 43°17' E 009°44'714.2
2017-Nov-15 11:31N 43°17' E 009°54'612.3
2017-Nov-15 11:01N 43°19' E 010°02'714.3
2017-Nov-15 10:31N 43°25' E 010°07'714.3
2017-Nov-15 10:00N 43°31' E 010°13'4 8.6
2017-Nov-15 09:30N 43°33' E 010°18'2 3.9
2017-Nov-15 09:00N 43°35' E 010°19'0 0.0
2017-Nov-15 08:28N 43°35' E 010°19'0 0.0
2017-Nov-15 07:58N 43°35' E 010°19'0 0.0
2017-Nov-15 07:28N 43°35' E 010°19'0 0.0
2017-Nov-15 06:55N 43°35' E 010°19'0 0.0
2017-Nov-15 06:28N 43°35' E 010°19'0 0.0
2017-Nov-15 05:58N 43°35' E 010°19'0 0.0
2017-Nov-15 05:22N 43°35' E 010°19'0 0.0
2017-Nov-15 04:58N 43°35' E 010°19'0 0.0
2017-Nov-15 04:28N 43°35' E 010°19'0 0.0
2017-Nov-15 03:55N 43°35' E 010°19'0 0.0
2017-Nov-15 03:25N 43°35' E 010°19'0 0.0
2017-Nov-15 02:58N 43°35' E 010°19'0 0.0
2017-Nov-15 02:28N 43°35' E 010°19'0 0.0
2017-Nov-15 01:58N 43°35' E 010°19'0 0.0
2017-Nov-15 01:28N 43°35' E 010°19'0 0.0
2017-Nov-15 00:58N 43°35' E 010°19'0 0.0
2017-Nov-15 00:28N 43°35' E 010°19'0 0.0
2017-Nov-14 23:58N 43°35' E 010°19'0 0.0
2017-Nov-14 23:25N 43°35' E 010°19'0 0.0
2017-Nov-14 22:58N 43°35' E 010°19'0 0.0
2017-Nov-14 22:28N 43°35' E 010°19'0 0.0
2017-Nov-14 21:58N 43°35' E 010°19'0 0.0
2017-Nov-14 21:28N 43°35' E 010°19'0 0.0
2017-Nov-14 20:55N 43°35' E 010°19'0 0.0
2017-Nov-14 20:28N 43°35' E 010°19'0 0.0
2017-Nov-14 19:52N 43°35' E 010°19'0 0.0
2017-Nov-14 19:28N 43°35' E 010°19'0 0.0
2017-Nov-14 18:58N 43°35' E 010°19'0 0.0
2017-Nov-14 18:28N 43°35' E 010°19'0 0.0
2017-Nov-14 17:58N 43°35' E 010°19'0 0.0
2017-Nov-14 17:28N 43°35' E 010°19'0 0.0
2017-Nov-14 16:58N 43°35' E 010°19'0 0.0
2017-Nov-14 16:28N 43°35' E 010°19'0 0.0
2017-Nov-14 15:58N 43°35' E 010°19'0 0.0
2017-Nov-14 15:28N 43°35' E 010°19'0 0.0
2017-Nov-14 14:58N 43°35' E 010°19'0 0.0
2017-Nov-14 14:28N 43°35' E 010°19'0 0.0
2017-Nov-14 13:58N 43°35' E 010°19'0 0.0
2017-Nov-14 13:25N 43°35' E 010°19'0 0.0
2017-Nov-14 12:58N 43°35' E 010°19'0 0.0
2017-Nov-14 12:30N 43°35' E 010°19'0 0.1
2017-Nov-14 12:00N 43°35' E 010°19'2 3.1
2017-Nov-14 11:30N 43°34' E 010°18'3 5.8
2017-Nov-14 11:00N 43°31' E 010°16'3 5.8
2017-Nov-14 10:30N 43°29' E 010°13'3 6.1
2017-Nov-14 10:00N 43°27' E 010°10'3 6.3
2017-Nov-14 09:30N 43°24' E 010°08'611.0
2017-Nov-14 09:00N 43°20' E 010°04'611.3
2017-Nov-14 08:30N 43°17' E 009°57'612.7
2017-Nov-14 08:00N 43°17' E 009°48'612.9
2017-Nov-14 07:30N 43°17' E 009°39'713.3
2017-Nov-14 07:00N 43°17' E 009°30'713.6
2017-Nov-14 06:30N 43°17' E 009°21'612.9
2017-Nov-14 06:00N 43°17' E 009°12'611.6
2017-Nov-14 05:30N 43°15' E 009°04'510.9
2017-Nov-14 05:00N 43°13' E 008°57'  
2017-Nov-11 22:54N 37°41' W 000°25'614.7
2017-Nov-11 22:31N 37°36' W 000°29'1314.4
2017-Nov-11 21:35N 37°26' W 000°41'114.3
2017-Nov-11 21:31N 37°25' W 000°42'714.2
2017-Nov-11 21:00N 37°20' W 000°48'814.3
2017-Nov-11 20:27N 37°15' W 000°55'21613.8
2017-Nov-11 04:50N 36°00' W 005°07'515.3
2017-Nov-11 04:30N 35°59' W 005°14'713.5
2017-Nov-11 04:01N 35°54' W 005°20'0 0.1
2017-Nov-11 03:31N 35°54' W 005°20'0 0.1
2017-Nov-11 03:00N 35°54' W 005°20'0 0.2
2017-Nov-11 02:30N 35°54' W 005°20'0 0.1
2017-Nov-11 02:01N 35°54' W 005°20'0 0.1
2017-Nov-11 01:31N 35°54' W 005°20'0 0.0
2017-Nov-11 01:00N 35°54' W 005°20'0 0.1
2017-Nov-11 00:31N 35°54' W 005°20'0 0.0
2017-Nov-11 00:00N 35°54' W 005°20'1 2.4
2017-Nov-10 23:30N 35°56' W 005°20'713.2
2017-Nov-10 23:00N 36°02' W 005°22'713.8
2017-Nov-10 22:29N 36°09' W 005°24'  

Dump ship's entire track history